Sao Tiago, Brazil
Current Conditions -  °F | °C
As of 12:00 PM on Thursday 27 Nov 2014 (Local Time) from SBBQ Reporting Station
Light Rain Light Rain  
Wind Chill: 75°   Ceiling: 900
Heat Index: 75°   Visibility: 6mi
Dew Point: 66°   Wind: 12mph
Humidity: 73%   Direction: 330°NNW
Pressure: 30.09"   Gusts: NA
Location:  20.91°S, 44.51°W
Report Text: SBBQ 271400Z 33010KT 9999 -RA BKN009 24/19 Q1019
Loading
Personal Weather Stations






























Interactive Weather Map New forecast layout! Learn more

10-Day Weather Forecast

Advertisements
Track Severe Weather on mobile